createdAt,value
2018-12-07T00:02:06.695Z,3.17
2018-12-07T00:04:36.133Z,3.30
2018-12-07T00:07:05.556Z,3.67
2018-12-07T00:09:34.861Z,3.10
2018-12-07T00:12:04.340Z,3.20
2018-12-07T00:14:33.331Z,3.27
2018-12-07T00:17:03.098Z,3.93
2018-12-07T00:19:32.182Z,3.13
2018-12-07T00:22:01.268Z,2.60
2018-12-07T00:24:30.229Z,3.37
2018-12-07T00:26:59.466Z,2.60
2018-12-07T00:29:28.592Z,3.23
2018-12-07T00:31:57.668Z,2.47
2018-12-07T00:34:26.975Z,2.57
2018-12-07T00:36:56.563Z,3.10
2018-12-07T00:39:25.577Z,2.50
2018-12-07T00:41:54.692Z,2.97
2018-12-07T00:44:23.989Z,2.73
2018-12-07T00:46:53.229Z,3.13
2018-12-07T00:49:22.755Z,2.90
2018-12-07T00:51:52.284Z,2.50
2018-12-07T00:54:22.087Z,2.47
2018-12-07T00:56:51.335Z,2.50
2018-12-07T00:59:20.449Z,2.77
2018-12-07T01:01:49.523Z,3.63
2018-12-07T01:04:18.597Z,2.60
2018-12-07T01:06:47.863Z,2.23
2018-12-07T01:09:17.177Z,2.23
2018-12-07T01:11:46.402Z,2.00
2018-12-07T01:14:15.382Z,2.40
2018-12-07T01:16:45.786Z,2.10
2018-12-07T01:19:14.990Z,1.97
2018-12-07T01:21:45.125Z,2.10
2018-12-07T01:24:14.964Z,1.67
2018-12-07T01:26:44.342Z,2.00
2018-12-07T01:29:14.282Z,1.73
2018-12-07T01:31:43.255Z,1.80
2018-12-07T01:34:13.004Z,2.03
2018-12-07T01:36:51.994Z,1.80
2018-12-07T01:39:21.052Z,2.07
2018-12-07T01:41:50.449Z,1.90
2018-12-07T01:44:20.408Z,2.33
2018-12-07T01:46:49.782Z,2.27
2018-12-07T01:49:19.078Z,1.80
2018-12-07T01:51:48.560Z,2.00
2018-12-07T01:54:17.649Z,1.93
2018-12-07T01:56:46.676Z,2.13
2018-12-07T01:59:15.845Z,2.00
2018-12-07T02:01:45.050Z,2.20
2018-12-07T02:04:26.064Z,1.90
2018-12-07T02:06:55.286Z,2.07
2018-12-07T02:09:24.196Z,2.10
2018-12-07T02:11:53.383Z,1.93
2018-12-07T02:14:22.486Z,1.73
2018-12-07T02:16:51.616Z,1.27
2018-12-07T02:19:20.656Z,1.80
2018-12-07T02:21:51.869Z,1.30
2018-12-07T02:24:20.893Z,1.30
2018-12-07T02:26:50.409Z,1.37
2018-12-07T02:29:19.358Z,1.47
2018-12-07T02:31:48.459Z,1.77
2018-12-07T02:34:17.762Z,1.43
2018-12-07T02:36:46.731Z,1.50
2018-12-07T02:39:15.865Z,1.43
2018-12-07T02:41:45.197Z,1.50
2018-12-07T02:44:14.553Z,1.27
2018-12-07T02:46:44.196Z,1.30
2018-12-07T02:49:13.186Z,1.20
2018-12-07T02:51:42.221Z,1.60
2018-12-07T02:54:11.776Z,1.30
2018-12-07T02:56:40.874Z,1.50
2018-12-07T02:59:10.431Z,1.30
2018-12-07T03:01:45.669Z,1.10
2018-12-07T03:04:15.141Z,1.60
2018-12-07T03:06:44.400Z,1.33
2018-12-07T03:09:13.327Z,1.40
2018-12-07T03:11:42.625Z,1.43
2018-12-07T03:14:14.941Z,1.43
2018-12-07T03:16:43.969Z,1.50
2018-12-07T03:19:12.907Z,1.30
2018-12-07T03:21:42.417Z,1.30
2018-12-07T03:24:11.505Z,1.27
2018-12-07T03:26:40.785Z,1.20
2018-12-07T03:29:09.763Z,1.20
2018-12-07T03:31:39.174Z,1.30
2018-12-07T03:34:08.295Z,1.20
2018-12-07T03:36:37.591Z,1.10
2018-12-07T03:39:07.158Z,1.20
2018-12-07T03:41:39.763Z,1.20
2018-12-07T03:44:08.786Z,1.23
2018-12-07T03:46:37.906Z,1.20
2018-12-07T03:49:07.202Z,1.40
2018-12-07T03:51:36.529Z,1.37
2018-12-07T03:54:06.280Z,1.10
2018-12-07T03:56:35.489Z,1.33
2018-12-07T03:59:04.531Z,1.30
2018-12-07T04:01:33.770Z,1.30
2018-12-07T04:04:02.955Z,1.30
2018-12-07T04:06:31.925Z,1.20
2018-12-07T04:09:00.976Z,1.30
2018-12-07T04:11:30.071Z,1.87
2018-12-07T04:13:59.066Z,2.10
2018-12-07T04:16:28.300Z,1.30
2018-12-07T04:18:57.607Z,1.40
2018-12-07T04:21:26.589Z,1.40
2018-12-07T04:23:55.531Z,1.60
2018-12-07T04:26:25.040Z,1.50
2018-12-07T04:28:54.022Z,1.60
2018-12-07T04:31:23.136Z,2.30
2018-12-07T04:33:52.230Z,1.50
2018-12-07T04:36:21.911Z,1.60
2018-12-07T04:38:51.195Z,1.63
2018-12-07T04:41:20.369Z,1.50
2018-12-07T04:43:49.423Z,1.47
2018-12-07T04:46:18.397Z,1.67
2018-12-07T04:48:47.396Z,1.73
2018-12-07T04:51:16.449Z,1.60
2018-12-07T04:53:45.465Z,1.70
2018-12-07T04:56:14.704Z,1.60
2018-12-07T04:58:43.748Z,1.90
2018-12-07T05:01:12.813Z,1.50
2018-12-07T05:03:41.916Z,1.53
2018-12-07T05:06:11.124Z,1.80
2018-12-07T05:08:40.817Z,1.70
2018-12-07T05:11:09.838Z,2.10
2018-12-07T05:13:39.185Z,1.57
2018-12-07T05:16:08.181Z,2.23
2018-12-07T05:18:37.189Z,1.97
2018-12-07T05:21:06.424Z,1.87
2018-12-07T05:23:35.596Z,2.00
2018-12-07T05:26:04.807Z,1.60
2018-12-07T05:28:34.101Z,1.77
2018-12-07T05:31:04.162Z,1.70
2018-12-07T05:33:33.347Z,1.50
2018-12-07T05:36:02.581Z,1.60
2018-12-07T05:38:32.331Z,2.20
2018-12-07T05:41:01.594Z,1.90
2018-12-07T05:43:31.177Z,3.10
2018-12-07T05:46:00.219Z,1.70
2018-12-07T05:48:30.721Z,1.80
2018-12-07T05:50:59.830Z,3.13
2018-12-07T05:53:28.935Z,2.60
2018-12-07T05:55:58.235Z,1.93
2018-12-07T05:58:27.324Z,2.13
2018-12-07T06:00:57.530Z,2.10
2018-12-07T06:03:26.765Z,2.73
2018-12-07T06:05:58.136Z,4.40
2018-12-07T06:08:28.376Z,3.10
2018-12-07T06:10:58.915Z,2.73
2018-12-07T06:13:27.917Z,2.87
2018-12-07T06:15:57.426Z,2.37
2018-12-07T06:18:26.588Z,3.70
2018-12-07T06:20:55.615Z,2.67
2018-12-07T06:23:25.697Z,2.43
2018-12-07T06:25:55.098Z,2.30
2018-12-07T06:28:24.332Z,3.20
2018-12-07T06:30:53.571Z,2.80
2018-12-07T06:33:22.864Z,2.33
2018-12-07T06:35:52.143Z,2.30
2018-12-07T06:38:21.695Z,2.10
2018-12-07T06:40:51.021Z,2.17
2018-12-07T06:43:20.438Z,2.67
2018-12-07T06:45:49.753Z,1.67
2018-12-07T06:48:18.939Z,1.90
2018-12-07T06:50:48.292Z,2.03
2018-12-07T06:53:17.397Z,2.50
2018-12-07T06:55:46.738Z,2.50
2018-12-07T06:58:15.998Z,2.40
2018-12-07T07:00:45.735Z,2.60
2018-12-07T07:03:15.243Z,2.60
2018-12-07T07:05:44.702Z,2.87
2018-12-07T07:08:15.022Z,2.97
2018-12-07T07:10:44.319Z,2.53
2018-12-07T07:13:14.655Z,3.00
2018-12-07T07:15:44.131Z,2.63
2018-12-07T07:18:13.595Z,4.67
2018-12-07T07:20:43.022Z,2.60
2018-12-07T07:23:12.465Z,2.80
2018-12-07T07:25:41.808Z,2.57
2018-12-07T07:28:11.132Z,2.40
2018-12-07T07:30:40.400Z,2.57
2018-12-07T07:33:09.502Z,3.03
2018-12-07T07:35:38.895Z,4.43
2018-12-07T07:38:08.278Z,2.83
2018-12-07T07:40:37.373Z,3.20
2018-12-07T07:43:06.458Z,5.87
2018-12-07T07:45:35.677Z,3.73
2018-12-07T07:48:04.994Z,3.80
2018-12-07T07:50:33.989Z,3.40
2018-12-07T07:53:03.152Z,3.97
2018-12-07T07:55:32.276Z,3.23
2018-12-07T07:58:01.488Z,3.20
2018-12-07T08:00:30.654Z,3.27
2018-12-07T08:03:00.037Z,3.03
2018-12-07T08:05:29.401Z,3.37
2018-12-07T08:07:58.755Z,3.23
2018-12-07T08:10:28.175Z,3.13
2018-12-07T08:12:58.776Z,2.57
2018-12-07T08:15:28.415Z,2.80
2018-12-07T08:17:57.786Z,2.80
2018-12-07T08:20:26.928Z,2.97
2018-12-07T08:22:56.113Z,6.37
2018-12-07T08:25:32.115Z,2.90
2018-12-07T08:28:01.300Z,6.43
2018-12-07T08:30:30.534Z,3.10
2018-12-07T08:33:00.057Z,3.50
2018-12-07T08:35:29.477Z,3.70
2018-12-07T08:37:58.803Z,2.60
2018-12-07T08:40:28.111Z,3.43
2018-12-07T08:42:57.379Z,4.10
2018-12-07T08:45:27.212Z,6.03
2018-12-07T08:47:56.402Z,4.53
2018-12-07T08:50:25.655Z,6.57
2018-12-07T08:52:54.729Z,8.70
2018-12-07T08:55:24.587Z,6.20
2018-12-07T08:57:53.547Z,6.43
2018-12-07T09:00:23.336Z,4.10
2018-12-07T09:02:52.392Z,4.23
2018-12-07T09:05:21.406Z,5.87
2018-12-07T09:07:50.513Z,5.27
2018-12-07T09:10:19.811Z,3.13
2018-12-07T09:12:49.037Z,5.20
2018-12-07T09:15:18.170Z,5.57
2018-12-07T09:17:48.759Z,5.30
2018-12-07T09:20:19.527Z,2.90
2018-12-07T09:22:48.749Z,6.23
2018-12-07T09:25:18.401Z,4.07
2018-12-07T09:27:47.397Z,4.33
2018-12-07T09:30:16.660Z,4.37
2018-12-07T09:32:45.663Z,4.23
2018-12-07T09:35:15.121Z,3.97
2018-12-07T09:37:44.347Z,3.43
2018-12-07T09:40:13.703Z,2.70
2018-12-07T09:42:43.188Z,4.07
2018-12-07T09:45:12.647Z,5.03
2018-12-07T09:47:41.859Z,3.83
2018-12-07T09:50:11.110Z,4.93
2018-12-07T09:52:40.485Z,3.63
2018-12-07T09:55:09.857Z,3.70
2018-12-07T09:57:39.093Z,4.60
2018-12-07T10:00:08.505Z,3.33
2018-12-07T10:02:37.512Z,4.87
2018-12-07T10:05:08.641Z,4.30
2018-12-07T10:07:38.442Z,4.23
2018-12-07T10:10:08.114Z,4.23
2018-12-07T10:12:39.041Z,3.93
2018-12-07T10:15:08.278Z,6.67
2018-12-07T10:17:37.432Z,6.03
2018-12-07T10:20:06.709Z,8.67
2018-12-07T10:22:35.848Z,4.93
2018-12-07T10:25:05.620Z,5.57
2018-12-07T10:27:35.072Z,4.57
2018-12-07T10:30:05.252Z,6.50
2018-12-07T10:32:34.569Z,3.50
2018-12-07T10:35:04.250Z,5.80
2018-12-07T10:37:33.416Z,7.57
2018-12-07T10:40:02.738Z,4.17
2018-12-07T10:42:32.236Z,3.43
2018-12-07T10:45:04.298Z,5.33
2018-12-07T10:47:33.509Z,4.53
2018-12-07T10:50:02.842Z,5.23
2018-12-07T10:52:32.249Z,3.43
2018-12-07T10:55:01.663Z,3.47
2018-12-07T10:57:31.029Z,5.10
2018-12-07T11:00:00.027Z,4.43
2018-12-07T11:02:34.515Z,2.97
2018-12-07T11:05:09.343Z,4.13
2018-12-07T11:07:43.855Z,3.33
2018-12-07T11:10:20.284Z,6.40
2018-12-07T11:12:54.703Z,3.73
2018-12-07T11:17:34.957Z,2.97
2018-12-07T11:20:10.060Z,2.70
2018-12-07T11:22:44.626Z,3.87
2018-12-07T11:25:19.423Z,2.60
2018-12-07T11:27:53.941Z,4.33
2018-12-07T11:30:30.685Z,2.73
2018-12-07T11:33:06.244Z,2.60
2018-12-07T11:35:37.881Z,2.70
2018-12-07T11:38:07.543Z,3.93
2018-12-07T11:40:36.589Z,4.50
2018-12-07T11:43:05.817Z,2.63
2018-12-07T11:45:34.931Z,2.77
2018-12-07T11:48:04.085Z,5.17
2018-12-07T11:50:33.297Z,2.63
2018-12-07T11:53:02.505Z,3.10
2018-12-07T11:55:32.226Z,3.10
2018-12-07T11:58:01.656Z,6.37
2018-12-07T12:00:30.995Z,5.30
2018-12-07T12:03:00.240Z,7.30
2018-12-07T12:05:29.507Z,3.87
2018-12-07T12:07:58.804Z,4.07
2018-12-07T12:10:28.125Z,5.27
2018-12-07T12:12:57.261Z,3.83
2018-12-07T12:15:27.310Z,4.53
2018-12-07T12:17:56.558Z,5.77
2018-12-07T12:20:25.759Z,4.67
2018-12-07T12:22:55.302Z,4.13
2018-12-07T12:25:24.436Z,8.20
2018-12-07T12:27:53.429Z,3.97
2018-12-07T12:30:22.539Z,4.43
2018-12-07T12:32:51.741Z,4.90
2018-12-07T12:35:21.601Z,4.10
2018-12-07T12:37:50.900Z,6.17
2018-12-07T12:40:20.216Z,3.83
2018-12-07T12:42:50.914Z,7.87
2018-12-07T12:45:20.216Z,7.03
2018-12-07T12:47:49.320Z,2.80
2018-12-07T12:50:24.131Z,2.90
2018-12-07T12:52:53.862Z,3.90
2018-12-07T12:55:22.973Z,4.37
2018-12-07T12:57:52.417Z,5.30
2018-12-07T13:00:21.614Z,4.17
2018-12-07T13:02:50.960Z,10.13
2018-12-07T13:05:26.437Z,5.93
2018-12-07T13:08:02.569Z,5.50
2018-12-07T13:10:31.780Z,3.10
2018-12-07T13:13:01.388Z,3.00
2018-12-07T13:15:30.585Z,4.30
2018-12-07T13:17:59.609Z,4.10
2018-12-07T13:20:28.660Z,3.40
2018-12-07T13:23:00.212Z,4.33
2018-12-07T13:25:29.473Z,3.60
2018-12-07T13:27:58.682Z,3.83
2018-12-07T13:30:27.877Z,2.97
2018-12-07T13:32:57.079Z,4.87
2018-12-07T13:35:26.425Z,3.97
2018-12-07T13:37:55.685Z,7.03
2018-12-07T13:40:25.171Z,4.37
2018-12-07T13:42:54.472Z,4.90
2018-12-07T13:45:24.040Z,5.07
2018-12-07T13:47:53.301Z,4.63
2018-12-07T13:50:27.936Z,3.40
2018-12-07T13:52:57.885Z,3.20
2018-12-07T13:55:27.560Z,3.97
2018-12-07T13:57:56.898Z,2.60
2018-12-07T14:00:26.310Z,3.10
2018-12-07T14:02:55.722Z,4.03
2018-12-07T14:05:32.037Z,3.20
2018-12-07T14:07:56.444Z,3.83
2018-12-07T14:10:25.948Z,3.93
2018-12-07T14:12:55.212Z,2.80
2018-12-07T14:15:24.439Z,3.37
2018-12-07T14:17:53.560Z,3.33
2018-12-07T14:20:22.907Z,3.10
2018-12-07T14:22:52.206Z,3.27
2018-12-07T14:25:22.620Z,2.50
2018-12-07T14:27:51.968Z,2.80
2018-12-07T14:30:21.129Z,2.47
2018-12-07T14:32:50.930Z,5.00
2018-12-07T14:35:22.217Z,6.40
2018-12-07T14:37:52.112Z,7.00
2018-12-07T14:40:21.745Z,12.13
2018-12-07T14:42:51.154Z,2.93
2018-12-07T14:45:21.047Z,2.30
2018-12-07T14:47:50.250Z,2.10
2018-12-07T14:50:19.860Z,1.80
2018-12-07T14:52:49.401Z,2.67
2018-12-07T14:55:18.785Z,2.23
2018-12-07T14:57:48.668Z,3.43
2018-12-07T15:00:18.473Z,2.63
2018-12-07T15:02:47.739Z,1.60
2018-12-07T15:05:17.558Z,1.70
2018-12-07T15:07:47.083Z,2.17
2018-12-07T15:10:17.242Z,1.70
2018-12-07T15:12:48.109Z,1.40
2018-12-07T15:15:17.470Z,1.83
2018-12-07T15:17:47.059Z,1.70
2018-12-07T15:20:16.529Z,1.93
2018-12-07T15:22:46.394Z,1.70
2018-12-07T15:25:15.760Z,1.50
2018-12-07T15:27:44.982Z,1.70
2018-12-07T15:30:14.357Z,1.63
2018-12-07T15:32:43.780Z,3.47
2018-12-07T15:35:14.558Z,1.20
2018-12-07T15:37:43.792Z,2.67
2018-12-07T15:40:13.123Z,1.27
2018-12-07T15:42:42.333Z,1.83
2018-12-07T15:45:11.840Z,1.90
2018-12-07T15:47:41.164Z,1.80
2018-12-07T15:50:11.318Z,1.43
2018-12-07T15:52:40.677Z,1.87
2018-12-07T15:55:09.743Z,1.57
2018-12-07T15:57:38.786Z,1.80
2018-12-07T16:00:09.236Z,1.70
2018-12-07T16:02:39.236Z,1.50
2018-12-07T16:05:09.086Z,1.43
2018-12-07T16:07:39.724Z,1.80
2018-12-07T16:10:09.270Z,3.53
2018-12-07T16:12:38.824Z,1.90
2018-12-07T16:15:08.510Z,3.47
2018-12-07T16:17:38.026Z,1.80
2018-12-07T16:20:11.663Z,1.60
2018-12-07T16:22:41.499Z,2.13
2018-12-07T16:25:11.242Z,4.53
2018-12-07T16:27:40.612Z,1.60
2018-12-07T16:30:10.629Z,1.43
2018-12-07T16:32:40.353Z,1.40
2018-12-07T16:35:09.741Z,1.43
2018-12-07T16:37:39.245Z,1.30
2018-12-07T16:40:09.403Z,1.50
2018-12-07T16:42:38.920Z,1.10
2018-12-07T16:45:08.780Z,1.57
2018-12-07T16:47:38.328Z,1.20
2018-12-07T16:50:07.985Z,2.73
2018-12-07T16:52:37.330Z,1.23
2018-12-07T16:55:06.734Z,1.80
2018-12-07T16:57:35.949Z,1.80
2018-12-07T17:00:05.709Z,3.43
2018-12-07T17:02:35.202Z,1.30
2018-12-07T17:05:05.303Z,1.50
2018-12-07T17:07:34.527Z,1.50
2018-12-07T17:10:04.786Z,1.40
2018-12-07T17:12:35.137Z,1.53
2018-12-07T17:15:05.060Z,2.00
2018-12-07T17:17:34.433Z,1.97
2018-12-07T17:20:04.296Z,1.30
2018-12-07T17:22:33.529Z,2.13
2018-12-07T17:25:02.680Z,1.60
2018-12-07T17:27:31.911Z,1.80
2018-12-07T17:30:01.929Z,2.00
2018-12-07T17:32:31.340Z,1.80
2018-12-07T17:35:00.955Z,2.17
2018-12-07T17:37:30.682Z,1.90
2018-12-07T17:40:00.212Z,1.90
2018-12-07T17:42:29.725Z,2.17
2018-12-07T17:44:59.828Z,2.60
2018-12-07T17:47:29.031Z,2.10
2018-12-07T17:49:58.296Z,2.20
2018-12-07T17:52:27.686Z,2.20
2018-12-07T17:54:56.991Z,2.30
2018-12-07T17:57:26.136Z,2.00
2018-12-07T17:59:55.345Z,2.40
2018-12-07T18:02:25.106Z,2.50
2018-12-07T18:04:54.704Z,2.67
2018-12-07T18:07:24.277Z,2.87
2018-12-07T18:09:53.586Z,2.60
2018-12-07T18:12:22.836Z,2.53
2018-12-07T18:14:52.022Z,3.27
2018-12-07T18:17:23.339Z,2.20
2018-12-07T18:19:53.007Z,3.77
2018-12-07T18:22:22.479Z,2.50
2018-12-07T18:24:52.076Z,2.50
2018-12-07T18:27:21.773Z,2.40
2018-12-07T18:29:51.056Z,2.27
2018-12-07T18:32:20.593Z,2.47
2018-12-07T18:34:50.460Z,2.37
2018-12-07T18:37:19.998Z,2.27
2018-12-07T18:39:49.391Z,4.47
2018-12-07T18:42:19.849Z,3.70
2018-12-07T18:44:49.128Z,2.50
2018-12-07T18:47:18.449Z,4.47
2018-12-07T18:49:48.339Z,2.50
2018-12-07T18:52:17.759Z,2.40
2018-12-07T18:54:47.014Z,1.70
2018-12-07T18:57:16.192Z,2.47
2018-12-07T18:59:45.204Z,1.60
2018-12-07T19:02:14.534Z,2.30
2018-12-07T19:04:43.802Z,1.70
2018-12-07T19:07:13.400Z,1.70
2018-12-07T19:09:42.651Z,2.53
2018-12-07T19:12:12.368Z,2.10
2018-12-07T19:14:41.579Z,4.07
2018-12-07T19:17:11.023Z,2.00
2018-12-07T19:19:40.447Z,2.17
2018-12-07T19:22:09.705Z,1.97
2018-12-07T19:24:38.870Z,2.27
2018-12-07T19:27:08.004Z,2.70
2018-12-07T19:29:37.416Z,2.47
2018-12-07T19:32:06.716Z,1.80
2018-12-07T19:34:36.103Z,3.47
2018-12-07T19:37:05.562Z,2.00
2018-12-07T19:39:35.019Z,1.90
2018-12-07T19:42:04.121Z,2.50
2018-12-07T19:44:33.422Z,1.67
2018-12-07T19:47:02.678Z,2.03
2018-12-07T19:49:32.213Z,2.33
2018-12-07T19:52:01.687Z,2.30
2018-12-07T19:54:31.722Z,2.20
2018-12-07T19:57:01.173Z,1.70
2018-12-07T19:59:30.349Z,2.13
2018-12-07T20:01:59.849Z,2.10
2018-12-07T20:04:28.941Z,2.70
2018-12-07T20:06:58.247Z,2.10
2018-12-07T20:09:27.381Z,1.97
2018-12-07T20:11:56.626Z,2.03
2018-12-07T20:14:25.620Z,2.10
2018-12-07T20:16:55.448Z,1.63
2018-12-07T20:19:24.613Z,1.60
2018-12-07T20:21:54.263Z,1.77
2018-12-07T20:24:23.833Z,1.50
2018-12-07T20:26:53.286Z,1.80
2018-12-07T20:29:23.339Z,1.80
2018-12-07T20:31:52.542Z,2.10
2018-12-07T20:34:21.654Z,2.40
2018-12-07T20:36:51.283Z,1.87
2018-12-07T20:39:21.161Z,1.80
2018-12-07T20:41:50.526Z,1.80
2018-12-07T20:44:20.454Z,2.73
2018-12-07T20:46:49.636Z,1.37
2018-12-07T20:49:19.330Z,1.90
2018-12-07T20:51:48.780Z,1.50
2018-12-07T20:54:18.114Z,1.37
2018-12-07T20:56:48.620Z,1.63
2018-12-07T20:59:17.735Z,1.60
2018-12-07T21:01:51.642Z,2.73
2018-12-07T21:04:27.482Z,1.70
2018-12-07T21:07:43.361Z,2.10
2018-12-07T21:10:46.891Z,1.60
2018-12-07T21:13:33.720Z,3.23
2018-12-07T21:18:15.282Z,1.80
2018-12-07T21:20:44.319Z,1.87
2018-12-07T21:23:13.701Z,2.07
2018-12-07T21:25:42.939Z,1.90
2018-12-07T21:28:12.149Z,2.30
2018-12-07T21:30:55.487Z,2.37
2018-12-07T21:33:40.208Z,1.97
2018-12-07T21:36:33.608Z,3.37
2018-12-07T21:39:04.058Z,2.27
2018-12-07T21:41:33.304Z,3.00
2018-12-07T21:44:02.871Z,3.03
2018-12-07T21:46:32.184Z,2.70
2018-12-07T21:49:01.596Z,3.13
2018-12-07T21:51:45.831Z,2.50
2018-12-07T21:54:15.078Z,5.83
2018-12-07T21:56:44.418Z,3.10
2018-12-07T21:59:14.102Z,5.57
2018-12-07T22:01:43.658Z,3.40
2018-12-07T22:04:13.166Z,3.57
2018-12-07T22:06:42.408Z,2.90
2018-12-07T22:09:12.224Z,3.50
2018-12-07T22:11:41.733Z,2.47
2018-12-07T22:14:11.257Z,4.90
2018-12-07T22:16:40.340Z,4.93
2018-12-07T22:19:09.433Z,2.23
2018-12-07T22:21:38.808Z,4.83
2018-12-07T22:24:07.832Z,2.87
2018-12-07T22:26:37.011Z,5.33
2018-12-07T22:29:06.651Z,4.80
2018-12-07T22:31:36.154Z,4.50
2018-12-07T22:34:05.717Z,3.90
2018-12-07T22:36:35.178Z,2.90
2018-12-07T22:39:07.300Z,4.03
2018-12-07T22:41:37.058Z,5.30
2018-12-07T22:44:06.408Z,4.20
2018-12-07T22:46:35.735Z,2.73
2018-12-07T22:49:04.893Z,4.97
2018-12-07T22:51:34.240Z,3.50
2018-12-07T22:54:03.502Z,5.33
2018-12-07T22:56:32.956Z,8.17
2018-12-07T22:59:02.733Z,8.50
2018-12-07T23:01:32.057Z,3.73
2018-12-07T23:04:01.076Z,6.40
2018-12-07T23:06:30.395Z,5.20
2018-12-07T23:08:59.478Z,4.50
2018-12-07T23:11:28.559Z,4.93
2018-12-07T23:13:58.056Z,5.40
2018-12-07T23:16:27.470Z,4.43
2018-12-07T23:18:56.802Z,6.53
2018-12-07T23:21:26.857Z,7.73
2018-12-07T23:23:55.973Z,8.70
2018-12-07T23:26:25.601Z,4.50
2018-12-07T23:28:54.896Z,7.00
2018-12-07T23:31:24.138Z,7.27
2018-12-07T23:33:53.501Z,6.43
2018-12-07T23:36:22.852Z,6.87
2018-12-07T23:38:52.129Z,5.70
2018-12-07T23:41:21.359Z,7.47
2018-12-07T23:43:50.711Z,5.33
2018-12-07T23:46:19.722Z,5.90
2018-12-07T23:48:49.325Z,5.33
2018-12-07T23:51:18.580Z,5.33
2018-12-07T23:53:47.826Z,6.17
2018-12-07T23:56:17.023Z,7.10
2018-12-07T23:58:46.079Z,10.93
